sensor_id;sensor_type;location;lat;lon;timestamp;P1;durP1;ratioP1;P2;durP2;ratioP2
3801;SDS011;1916;51.798;12.246;2022-09-24T00:01:36;6.50;;;5.87;;
3801;SDS011;1916;51.798;12.246;2022-09-24T00:03:42;5.87;;;5.37;;
3801;SDS011;1916;51.798;12.246;2022-09-24T00:05:48;6.00;;;5.40;;
3801;SDS011;1916;51.798;12.246;2022-09-24T00:07:50;11.20;;;5.20;;
3801;SDS011;1916;51.798;12.246;2022-09-24T00:09:52;7.93;;;5.37;;
3801;SDS011;1916;51.798;12.246;2022-09-24T00:11:54;5.67;;;4.67;;
3801;SDS011;1916;51.798;12.246;2022-09-24T00:13:56;5.63;;;5.10;;
3801;SDS011;1916;51.798;12.246;2022-09-24T00:16:06;6.73;;;5.40;;
3801;SDS011;1916;51.798;12.246;2022-09-24T00:18:10;12.03;;;5.57;;
3801;SDS011;1916;51.798;12.246;2022-09-24T00:20:12;7.30;;;5.50;;
3801;SDS011;1916;51.798;12.246;2022-09-24T00:22:14;6.40;;;5.80;;
3801;SDS011;1916;51.798;12.246;2022-09-24T00:24:16;9.80;;;5.77;;
3801;SDS011;1916;51.798;12.246;2022-09-24T00:26:37;7.03;;;5.70;;
3801;SDS011;1916;51.798;12.246;2022-09-24T00:28:51;5.60;;;5.10;;
3801;SDS011;1916;51.798;12.246;2022-09-24T00:30:53;5.47;;;4.97;;
3801;SDS011;1916;51.798;12.246;2022-09-24T00:32:57;6.03;;;5.43;;
3801;SDS011;1916;51.798;12.246;2022-09-24T00:34:59;7.47;;;5.27;;
3801;SDS011;1916;51.798;12.246;2022-09-24T00:37:01;6.03;;;5.43;;
3801;SDS011;1916;51.798;12.246;2022-09-24T00:39:04;7.90;;;5.77;;
3801;SDS011;1916;51.798;12.246;2022-09-24T00:41:07;6.23;;;5.63;;
3801;SDS011;1916;51.798;12.246;2022-09-24T00:43:22;5.40;;;4.90;;
3801;SDS011;1916;51.798;12.246;2022-09-24T00:45:26;6.43;;;5.70;;
3801;SDS011;1916;51.798;12.246;2022-09-24T00:47:37;5.40;;;4.90;;
3801;SDS011;1916;51.798;12.246;2022-09-24T00:49:40;7.50;;;5.33;;
3801;SDS011;1916;51.798;12.246;2022-09-24T00:51:44;5.40;;;4.80;;
3801;SDS011;1916;51.798;12.246;2022-09-24T00:53:51;6.07;;;5.47;;
3801;SDS011;1916;51.798;12.246;2022-09-24T00:55:56;6.30;;;5.80;;
3801;SDS011;1916;51.798;12.246;2022-09-24T00:57:59;6.47;;;5.87;;
3801;SDS011;1916;51.798;12.246;2022-09-24T01:00:04;7.00;;;6.40;;
3801;SDS011;1916;51.798;12.246;2022-09-24T01:02:08;5.77;;;5.27;;
3801;SDS011;1916;51.798;12.246;2022-09-24T01:04:10;7.03;;;5.70;;
3801;SDS011;1916;51.798;12.246;2022-09-24T01:06:12;6.70;;;6.10;;
3801;SDS011;1916;51.798;12.246;2022-09-24T01:08:15;7.60;;;5.70;;
3801;SDS011;1916;51.798;12.246;2022-09-24T01:10:18;10.60;;;6.30;;
3801;SDS011;1916;51.798;12.246;2022-09-24T01:12:50;7.13;;;5.43;;
3801;SDS011;1916;51.798;12.246;2022-09-24T01:15:02;8.40;;;6.27;;
3801;SDS011;1916;51.798;12.246;2022-09-24T01:17:29;6.40;;;5.80;;
3801;SDS011;1916;51.798;12.246;2022-09-24T01:22:42;7.60;;;6.20;;
3801;SDS011;1916;51.798;12.246;2022-09-24T01:25:01;7.27;;;6.57;;
3801;SDS011;1916;51.798;12.246;2022-09-24T01:27:13;7.70;;;6.27;;
3801;SDS011;1916;51.798;12.246;2022-09-24T01:29:22;7.07;;;6.27;;
3801;SDS011;1916;51.798;12.246;2022-09-24T01:31:25;7.73;;;5.93;;
3801;SDS011;1916;51.798;12.246;2022-09-24T01:33:30;9.57;;;5.90;;
3801;SDS011;1916;51.798;12.246;2022-09-24T01:35:39;8.70;;;7.30;;
3801;SDS011;1916;51.798;12.246;2022-09-24T01:37:45;9.97;;;6.40;;
3801;SDS011;1916;51.798;12.246;2022-09-24T01:39:51;10.80;;;6.20;;
3801;SDS011;1916;51.798;12.246;2022-09-24T01:41:54;6.90;;;6.20;;
3801;SDS011;1916;51.798;12.246;2022-09-24T01:43:57;7.40;;;6.70;;
3801;SDS011;1916;51.798;12.246;2022-09-24T01:46:04;8.00;;;7.20;;
3801;SDS011;1916;51.798;12.246;2022-09-24T01:48:07;8.13;;;6.47;;
3801;SDS011;1916;51.798;12.246;2022-09-24T01:50:12;9.50;;;6.23;;
3801;SDS011;1916;51.798;12.246;2022-09-24T01:52:18;7.10;;;6.40;;
3801;SDS011;1916;51.798;12.246;2022-09-24T01:54:35;6.90;;;6.30;;
3801;SDS011;1916;51.798;12.246;2022-09-24T01:58:50;7.53;;;6.73;;
3801;SDS011;1916;51.798;12.246;2022-09-24T02:01:04;7.53;;;6.73;;
3801;SDS011;1916;51.798;12.246;2022-09-24T02:03:15;8.40;;;6.23;;
3801;SDS011;1916;51.798;12.246;2022-09-24T02:07:28;10.00;;;7.10;;
3801;SDS011;1916;51.798;12.246;2022-09-24T02:09:35;8.60;;;6.50;;
3801;SDS011;1916;51.798;12.246;2022-09-24T02:11:38;8.20;;;7.40;;
3801;SDS011;1916;51.798;12.246;2022-09-24T02:13:42;6.90;;;6.30;;
3801;SDS011;1916;51.798;12.246;2022-09-24T02:15:47;11.20;;;7.47;;
3801;SDS011;1916;51.798;12.246;2022-09-24T02:17:54;7.93;;;7.13;;
3801;SDS011;1916;51.798;12.246;2022-09-24T02:19:58;8.03;;;7.23;;
3801;SDS011;1916;51.798;12.246;2022-09-24T02:22:03;7.73;;;7.10;;
3801;SDS011;1916;51.798;12.246;2022-09-24T02:24:09;7.07;;;6.47;;
3801;SDS011;1916;51.798;12.246;2022-09-24T02:26:23;8.20;;;7.30;;
3801;SDS011;1916;51.798;12.246;2022-09-24T02:28:25;8.37;;;7.03;;
3801;SDS011;1916;51.798;12.246;2022-09-24T02:30:28;8.67;;;7.60;;
3801;SDS011;1916;51.798;12.246;2022-09-24T02:32:32;8.00;;;7.30;;
3801;SDS011;1916;51.798;12.246;2022-09-24T02:34:37;8.93;;;7.40;;
3801;SDS011;1916;51.798;12.246;2022-09-24T02:36:43;9.93;;;7.00;;
3801;SDS011;1916;51.798;12.246;2022-09-24T02:38:45;7.77;;;7.07;;
3801;SDS011;1916;51.798;12.246;2022-09-24T02:40:47;10.37;;;6.97;;
3801;SDS011;1916;51.798;12.246;2022-09-24T02:42:51;8.40;;;7.60;;
3801;SDS011;1916;51.798;12.246;2022-09-24T02:44:52;8.30;;;6.67;;
3801;SDS011;1916;51.798;12.246;2022-09-24T02:46:58;9.90;;;7.90;;
3801;SDS011;1916;51.798;12.246;2022-09-24T02:49:00;7.53;;;6.83;;
3801;SDS011;1916;51.798;12.246;2022-09-24T02:51:02;8.63;;;7.70;;
3801;SDS011;1916;51.798;12.246;2022-09-24T02:53:05;7.47;;;6.70;;
3801;SDS011;1916;51.798;12.246;2022-09-24T02:55:07;8.03;;;7.23;;
3801;SDS011;1916;51.798;12.246;2022-09-24T02:57:09;7.90;;;7.10;;
3801;SDS011;1916;51.798;12.246;2022-09-24T02:59:11;15.27;;;8.20;;
3801;SDS011;1916;51.798;12.246;2022-09-24T03:01:13;7.77;;;6.97;;
3801;SDS011;1916;51.798;12.246;2022-09-24T03:03:15;8.87;;;7.17;;
3801;SDS011;1916;51.798;12.246;2022-09-24T03:05:17;8.77;;;7.87;;
3801;SDS011;1916;51.798;12.246;2022-09-24T03:07:19;7.80;;;7.10;;
3801;SDS011;1916;51.798;12.246;2022-09-24T03:09:23;9.47;;;8.10;;
3801;SDS011;1916;51.798;12.246;2022-09-24T03:11:24;8.97;;;8.07;;
3801;SDS011;1916;51.798;12.246;2022-09-24T03:13:27;13.03;;;8.90;;
3801;SDS011;1916;51.798;12.246;2022-09-24T03:15:29;9.20;;;8.40;;
3801;SDS011;1916;51.798;12.246;2022-09-24T03:17:31;10.17;;;9.00;;
3801;SDS011;1916;51.798;12.246;2022-09-24T03:19:33;9.47;;;8.47;;
3801;SDS011;1916;51.798;12.246;2022-09-24T03:21:34;10.17;;;8.93;;
3801;SDS011;1916;51.798;12.246;2022-09-24T03:23:37;9.40;;;8.27;;
3801;SDS011;1916;51.798;12.246;2022-09-24T03:25:39;10.93;;;9.60;;
3801;SDS011;1916;51.798;12.246;2022-09-24T03:27:41;9.53;;;8.60;;
3801;SDS011;1916;51.798;12.246;2022-09-24T03:29:43;16.20;;;8.63;;
3801;SDS011;1916;51.798;12.246;2022-09-24T03:32:03;10.20;;;8.93;;
3801;SDS011;1916;51.798;12.246;2022-09-24T03:34:05;9.50;;;8.43;;
3801;SDS011;1916;51.798;12.246;2022-09-24T03:36:08;10.40;;;8.40;;
3801;SDS011;1916;51.798;12.246;2022-09-24T03:38:16;9.63;;;8.63;;
3801;SDS011;1916;51.798;12.246;2022-09-24T03:40:17;9.90;;;8.90;;
3801;SDS011;1916;51.798;12.246;2022-09-24T03:42:19;11.10;;;8.83;;
3801;SDS011;1916;51.798;12.246;2022-09-24T03:44:21;10.30;;;9.30;;
3801;SDS011;1916;51.798;12.246;2022-09-24T03:46:23;10.47;;;9.33;;
3801;SDS011;1916;51.798;12.246;2022-09-24T03:48:29;10.17;;;9.17;;
3801;SDS011;1916;51.798;12.246;2022-09-24T03:50:31;10.87;;;9.57;;
3801;SDS011;1916;51.798;12.246;2022-09-24T03:52:39;10.10;;;9.10;;
3801;SDS011;1916;51.798;12.246;2022-09-24T03:54:41;11.00;;;9.80;;
3801;SDS011;1916;51.798;12.246;2022-09-24T03:56:43;14.93;;;9.80;;
3801;SDS011;1916;51.798;12.246;2022-09-24T03:58:45;9.43;;;8.53;;
3801;SDS011;1916;51.798;12.246;2022-09-24T04:00:52;14.93;;;10.67;;
3801;SDS011;1916;51.798;12.246;2022-09-24T04:02:54;10.50;;;9.43;;
3801;SDS011;1916;51.798;12.246;2022-09-24T04:04:56;11.90;;;9.50;;
3801;SDS011;1916;51.798;12.246;2022-09-24T04:06:59;9.83;;;8.83;;
3801;SDS011;1916;51.798;12.246;2022-09-24T04:09:01;11.93;;;9.27;;
3801;SDS011;1916;51.798;12.246;2022-09-24T04:11:03;10.63;;;9.53;;
3801;SDS011;1916;51.798;12.246;2022-09-24T04:13:05;11.13;;;9.93;;
3801;SDS011;1916;51.798;12.246;2022-09-24T04:15:07;13.10;;;10.00;;
3801;SDS011;1916;51.798;12.246;2022-09-24T04:17:09;10.23;;;9.13;;
3801;SDS011;1916;51.798;12.246;2022-09-24T04:19:12;10.00;;;9.10;;
3801;SDS011;1916;51.798;12.246;2022-09-24T04:21:16;11.43;;;9.70;;
3801;SDS011;1916;51.798;12.246;2022-09-24T04:23:18;9.90;;;8.90;;
3801;SDS011;1916;51.798;12.246;2022-09-24T04:25:21;10.23;;;9.23;;
3801;SDS011;1916;51.798;12.246;2022-09-24T04:27:23;11.70;;;9.40;;
3801;SDS011;1916;51.798;12.246;2022-09-24T04:29:25;11.37;;;8.97;;
3801;SDS011;1916;51.798;12.246;2022-09-24T04:31:27;10.33;;;9.23;;
3801;SDS011;1916;51.798;12.246;2022-09-24T04:33:29;10.87;;;9.80;;
3801;SDS011;1916;51.798;12.246;2022-09-24T04:35:32;9.77;;;8.80;;
3801;SDS011;1916;51.798;12.246;2022-09-24T04:37:36;9.40;;;8.30;;
3801;SDS011;1916;51.798;12.246;2022-09-24T04:39:39;9.23;;;8.23;;
3801;SDS011;1916;51.798;12.246;2022-09-24T04:41:41;10.00;;;9.00;;
3801;SDS011;1916;51.798;12.246;2022-09-24T04:43:43;10.20;;;9.20;;
3801;SDS011;1916;51.798;12.246;2022-09-24T04:45:47;9.03;;;8.13;;
3801;SDS011;1916;51.798;12.246;2022-09-24T04:47:49;10.53;;;9.43;;
3801;SDS011;1916;51.798;12.246;2022-09-24T04:49:54;9.63;;;8.73;;
3801;SDS011;1916;51.798;12.246;2022-09-24T04:51:57;12.00;;;10.50;;
3801;SDS011;1916;51.798;12.246;2022-09-24T04:53:59;13.63;;;10.37;;
3801;SDS011;1916;51.798;12.246;2022-09-24T04:56:03;14.83;;;11.40;;
3801;SDS011;1916;51.798;12.246;2022-09-24T04:58:06;10.63;;;9.57;;
3801;SDS011;1916;51.798;12.246;2022-09-24T05:00:08;11.33;;;10.13;;
3801;SDS011;1916;51.798;12.246;2022-09-24T05:02:16;17.53;;;8.93;;
3801;SDS011;1916;51.798;12.246;2022-09-24T05:04:19;9.70;;;8.70;;
3801;SDS011;1916;51.798;12.246;2022-09-24T05:06:21;10.17;;;9.17;;
3801;SDS011;1916;51.798;12.246;2022-09-24T05:08:23;13.53;;;10.17;;
3801;SDS011;1916;51.798;12.246;2022-09-24T05:10:25;9.97;;;8.80;;
3801;SDS011;1916;51.798;12.246;2022-09-24T05:12:28;13.93;;;8.90;;
3801;SDS011;1916;51.798;12.246;2022-09-24T05:14:30;13.70;;;9.70;;
3801;SDS011;1916;51.798;12.246;2022-09-24T05:16:32;11.07;;;9.97;;
3801;SDS011;1916;51.798;12.246;2022-09-24T05:18:34;13.27;;;10.30;;
3801;SDS011;1916;51.798;12.246;2022-09-24T05:20:37;14.37;;;9.40;;
3801;SDS011;1916;51.798;12.246;2022-09-24T05:22:40;12.60;;;9.80;;
3801;SDS011;1916;51.798;12.246;2022-09-24T05:24:43;12.60;;;9.77;;
3801;SDS011;1916;51.798;12.246;2022-09-24T05:26:44;10.93;;;9.83;;
3801;SDS011;1916;51.798;12.246;2022-09-24T05:29:05;13.90;;;10.40;;
3801;SDS011;1916;51.798;12.246;2022-09-24T05:31:07;11.73;;;10.53;;
3801;SDS011;1916;51.798;12.246;2022-09-24T05:33:09;14.67;;;10.27;;
3801;SDS011;1916;51.798;12.246;2022-09-24T05:35:11;13.27;;;11.53;;
3801;SDS011;1916;51.798;12.246;2022-09-24T05:37:14;18.03;;;11.70;;
3801;SDS011;1916;51.798;12.246;2022-09-24T05:39:16;12.50;;;10.80;;
3801;SDS011;1916;51.798;12.246;2022-09-24T05:41:18;13.57;;;9.80;;
3801;SDS011;1916;51.798;12.246;2022-09-24T05:43:21;15.30;;;10.13;;
3801;SDS011;1916;51.798;12.246;2022-09-24T05:45:23;11.00;;;9.73;;
3801;SDS011;1916;51.798;12.246;2022-09-24T05:47:25;15.03;;;10.43;;
3801;SDS011;1916;51.798;12.246;2022-09-24T05:49:27;15.50;;;11.63;;
3801;SDS011;1916;51.798;12.246;2022-09-24T05:51:28;12.07;;;10.90;;
3801;SDS011;1916;51.798;12.246;2022-09-24T05:53:30;12.80;;;11.17;;
3801;SDS011;1916;51.798;12.246;2022-09-24T05:55:33;12.93;;;11.73;;
3801;SDS011;1916;51.798;12.246;2022-09-24T05:57:35;14.73;;;12.30;;
3801;SDS011;1916;51.798;12.246;2022-09-24T05:59:37;12.23;;;11.03;;
3801;SDS011;1916;51.798;12.246;2022-09-24T06:01:39;14.47;;;12.77;;
3801;SDS011;1916;51.798;12.246;2022-09-24T06:03:41;15.03;;;10.93;;
3801;SDS011;1916;51.798;12.246;2022-09-24T06:05:47;14.70;;;13.30;;
3801;SDS011;1916;51.798;12.246;2022-09-24T06:07:50;14.80;;;13.27;;
3801;SDS011;1916;51.798;12.246;2022-09-24T06:09:52;13.33;;;11.93;;
3801;SDS011;1916;51.798;12.246;2022-09-24T06:11:55;14.53;;;12.60;;
3801;SDS011;1916;51.798;12.246;2022-09-24T06:13:57;13.20;;;11.80;;
3801;SDS011;1916;51.798;12.246;2022-09-24T06:16:00;13.20;;;11.70;;
3801;SDS011;1916;51.798;12.246;2022-09-24T06:18:05;14.97;;;11.30;;
3801;SDS011;1916;51.798;12.246;2022-09-24T06:20:12;11.27;;;10.17;;
3801;SDS011;1916;51.798;12.246;2022-09-24T06:22:14;12.23;;;11.00;;
3801;SDS011;1916;51.798;12.246;2022-09-24T06:24:16;13.10;;;10.70;;
3801;SDS011;1916;51.798;12.246;2022-09-24T06:26:18;11.47;;;10.27;;
3801;SDS011;1916;51.798;12.246;2022-09-24T06:28:20;11.17;;;9.90;;
3801;SDS011;1916;51.798;12.246;2022-09-24T06:30:22;11.23;;;10.10;;
3801;SDS011;1916;51.798;12.246;2022-09-24T06:32:24;12.90;;;9.67;;
3801;SDS011;1916;51.798;12.246;2022-09-24T06:34:26;10.57;;;9.50;;
3801;SDS011;1916;51.798;12.246;2022-09-24T06:36:28;10.63;;;9.53;;
3801;SDS011;1916;51.798;12.246;2022-09-24T06:38:30;11.00;;;9.37;;
3801;SDS011;1916;51.798;12.246;2022-09-24T06:40:33;9.90;;;8.50;;
3801;SDS011;1916;51.798;12.246;2022-09-24T06:42:38;12.30;;;9.13;;
3801;SDS011;1916;51.798;12.246;2022-09-24T06:44:40;10.87;;;9.10;;
3801;SDS011;1916;51.798;12.246;2022-09-24T06:46:43;9.23;;;8.23;;
3801;SDS011;1916;51.798;12.246;2022-09-24T06:48:47;10.23;;;9.13;;
3801;SDS011;1916;51.798;12.246;2022-09-24T06:50:49;9.30;;;8.40;;
3801;SDS011;1916;51.798;12.246;2022-09-24T06:52:52;9.50;;;8.20;;
3801;SDS011;1916;51.798;12.246;2022-09-24T06:54:54;8.97;;;8.07;;
3801;SDS011;1916;51.798;12.246;2022-09-24T06:56:57;9.33;;;7.40;;
3801;SDS011;1916;51.798;12.246;2022-09-24T06:58:59;9.10;;;8.20;;
3801;SDS011;1916;51.798;12.246;2022-09-24T07:01:01;12.10;;;9.03;;
3801;SDS011;1916;51.798;12.246;2022-09-24T07:03:04;11.60;;;8.23;;
3801;SDS011;1916;51.798;12.246;2022-09-24T07:05:07;9.37;;;8.40;;
3801;SDS011;1916;51.798;12.246;2022-09-24T07:07:10;11.43;;;8.70;;
3801;SDS011;1916;51.798;12.246;2022-09-24T07:09:30;21.63;;;9.57;;
3801;SDS011;1916;51.798;12.246;2022-09-24T07:11:32;8.77;;;7.93;;
3801;SDS011;1916;51.798;12.246;2022-09-24T07:13:34;10.30;;;8.67;;
3801;SDS011;1916;51.798;12.246;2022-09-24T07:15:36;10.40;;;8.27;;
3801;SDS011;1916;51.798;12.246;2022-09-24T07:17:38;10.30;;;8.80;;
3801;SDS011;1916;51.798;12.246;2022-09-24T07:19:40;8.70;;;7.80;;
3801;SDS011;1916;51.798;12.246;2022-09-24T07:21:43;11.93;;;8.00;;
3801;SDS011;1916;51.798;12.246;2022-09-24T07:23:44;10.73;;;8.90;;
3801;SDS011;1916;51.798;12.246;2022-09-24T07:25:47;10.33;;;9.03;;
3801;SDS011;1916;51.798;12.246;2022-09-24T07:27:49;8.87;;;7.93;;
3801;SDS011;1916;51.798;12.246;2022-09-24T07:29:51;9.57;;;7.80;;
3801;SDS011;1916;51.798;12.246;2022-09-24T07:31:53;12.30;;;7.47;;
3801;SDS011;1916;51.798;12.246;2022-09-24T07:33:55;9.50;;;8.60;;
3801;SDS011;1916;51.798;12.246;2022-09-24T07:35:57;9.80;;;8.80;;
3801;SDS011;1916;51.798;12.246;2022-09-24T07:38:00;8.60;;;7.80;;
3801;SDS011;1916;51.798;12.246;2022-09-24T07:40:04;8.37;;;7.53;;
3801;SDS011;1916;51.798;12.246;2022-09-24T07:42:06;8.90;;;7.80;;
3801;SDS011;1916;51.798;12.246;2022-09-24T07:44:08;10.10;;;7.70;;
3801;SDS011;1916;51.798;12.246;2022-09-24T07:46:10;8.50;;;7.60;;
3801;SDS011;1916;51.798;12.246;2022-09-24T07:48:12;8.73;;;7.37;;
3801;SDS011;1916;51.798;12.246;2022-09-24T07:50:16;6.67;;;5.90;;
3801;SDS011;1916;51.798;12.246;2022-09-24T07:52:19;7.60;;;6.70;;
3801;SDS011;1916;51.798;12.246;2022-09-24T07:54:21;10.63;;;7.30;;
3801;SDS011;1916;51.798;12.246;2022-09-24T07:56:23;11.50;;;6.27;;
3801;SDS011;1916;51.798;12.246;2022-09-24T07:58:26;7.33;;;6.60;;
3801;SDS011;1916;51.798;12.246;2022-09-24T08:00:27;8.20;;;6.87;;
3801;SDS011;1916;51.798;12.246;2022-09-24T08:02:29;6.23;;;5.63;;
3801;SDS011;1916;51.798;12.246;2022-09-24T08:04:32;12.50;;;6.03;;
3801;SDS011;1916;51.798;12.246;2022-09-24T08:06:34;8.40;;;6.40;;
3801;SDS011;1916;51.798;12.246;2022-09-24T08:08:42;6.10;;;5.60;;
3801;SDS011;1916;51.798;12.246;2022-09-24T08:10:46;6.13;;;5.53;;
3801;SDS011;1916;51.798;12.246;2022-09-24T08:12:48;6.33;;;5.70;;
3801;SDS011;1916;51.798;12.246;2022-09-24T08:14:51;7.57;;;4.83;;
3801;SDS011;1916;51.798;12.246;2022-09-24T08:16:53;6.80;;;5.80;;
3801;SDS011;1916;51.798;12.246;2022-09-24T08:18:55;6.30;;;5.70;;
3801;SDS011;1916;51.798;12.246;2022-09-24T08:20:57;8.10;;;5.63;;
3801;SDS011;1916;51.798;12.246;2022-09-24T08:23:01;7.77;;;6.47;;
3801;SDS011;1916;51.798;12.246;2022-09-24T08:25:04;5.87;;;5.40;;
3801;SDS011;1916;51.798;12.246;2022-09-24T08:27:06;6.60;;;5.73;;
3801;SDS011;1916;51.798;12.246;2022-09-24T08:29:09;5.90;;;5.40;;
3801;SDS011;1916;51.798;12.246;2022-09-24T08:31:11;7.23;;;6.40;;
3801;SDS011;1916;51.798;12.246;2022-09-24T08:33:13;6.40;;;5.70;;
3801;SDS011;1916;51.798;12.246;2022-09-24T08:35:16;9.30;;;5.83;;
3801;SDS011;1916;51.798;12.246;2022-09-24T08:37:19;6.07;;;5.47;;
3801;SDS011;1916;51.798;12.246;2022-09-24T08:39:21;10.40;;;5.63;;
3801;SDS011;1916;51.798;12.246;2022-09-24T08:46:09;6.37;;;5.77;;
3801;SDS011;1916;51.798;12.246;2022-09-24T08:48:34;7.67;;;5.87;;
3801;SDS011;1916;51.798;12.246;2022-09-24T08:50:39;5.67;;;5.10;;
3801;SDS011;1916;51.798;12.246;2022-09-24T08:55:29;8.93;;;5.80;;
3801;SDS011;1916;51.798;12.246;2022-09-24T08:57:36;9.87;;;8.37;;
3801;SDS011;1916;51.798;12.246;2022-09-24T08:59:48;7.77;;;6.83;;
3801;SDS011;1916;51.798;12.246;2022-09-24T09:02:15;9.40;;;6.80;;
3801;SDS011;1916;51.798;12.246;2022-09-24T09:04:39;9.30;;;5.37;;
3801;SDS011;1916;51.798;12.246;2022-09-24T09:09:16;6.47;;;5.87;;
3801;SDS011;1916;51.798;12.246;2022-09-24T09:11:21;7.70;;;4.90;;
3801;SDS011;1916;51.798;12.246;2022-09-24T09:13:45;5.80;;;5.20;;
3801;SDS011;1916;51.798;12.246;2022-09-24T09:15:59;5.90;;;5.30;;
3801;SDS011;1916;51.798;12.246;2022-09-24T09:20:42;10.20;;;5.60;;
3801;SDS011;1916;51.798;12.246;2022-09-24T09:22:49;6.07;;;4.87;;
3801;SDS011;1916;51.798;12.246;2022-09-24T09:24:54;7.33;;;5.10;;
3801;SDS011;1916;51.798;12.246;2022-09-24T09:27:04;7.50;;;5.03;;
3801;SDS011;1916;51.798;12.246;2022-09-24T09:29:12;7.07;;;5.17;;
3801;SDS011;1916;51.798;12.246;2022-09-24T09:31:25;5.27;;;4.77;;
3801;SDS011;1916;51.798;12.246;2022-09-24T09:43:49;9.07;;;5.57;;
3801;SDS011;1916;51.798;12.246;2022-09-24T09:48:19;6.57;;;5.93;;
3801;SDS011;1916;51.798;12.246;2022-09-24T09:50:27;5.30;;;4.80;;
3801;SDS011;1916;51.798;12.246;2022-09-24T09:52:32;5.33;;;4.70;;
3801;SDS011;1916;51.798;12.246;2022-09-24T09:54:37;5.80;;;4.60;;
3801;SDS011;1916;51.798;12.246;2022-09-24T09:56:43;11.57;;;5.10;;
3801;SDS011;1916;51.798;12.246;2022-09-24T09:58:47;7.57;;;5.20;;
3801;SDS011;1916;51.798;12.246;2022-09-24T10:01:03;6.30;;;5.30;;
3801;SDS011;1916;51.798;12.246;2022-09-24T10:03:23;4.73;;;4.23;;
3801;SDS011;1916;51.798;12.246;2022-09-24T10:05:27;4.70;;;4.30;;
3801;SDS011;1916;51.798;12.246;2022-09-24T10:07:30;8.67;;;5.40;;
3801;SDS011;1916;51.798;12.246;2022-09-24T10:09:33;5.23;;;4.27;;
3801;SDS011;1916;51.798;12.246;2022-09-24T10:11:35;5.87;;;4.70;;
3801;SDS011;1916;51.798;12.246;2022-09-24T10:13:37;5.87;;;4.63;;
3801;SDS011;1916;51.798;12.246;2022-09-24T10:15:47;8.10;;;4.23;;
3801;SDS011;1916;51.798;12.246;2022-09-24T10:17:53;6.60;;;4.63;;
3801;SDS011;1916;51.798;12.246;2022-09-24T10:19:55;5.10;;;4.60;;
3801;SDS011;1916;51.798;12.246;2022-09-24T10:21:58;9.90;;;4.70;;
3801;SDS011;1916;51.798;12.246;2022-09-24T10:24:12;6.43;;;4.90;;
3801;SDS011;1916;51.798;12.246;2022-09-24T10:26:17;6.57;;;4.30;;
3801;SDS011;1916;51.798;12.246;2022-09-24T10:28:19;5.10;;;4.60;;
3801;SDS011;1916;51.798;12.246;2022-09-24T10:30:46;4.93;;;4.37;;
3801;SDS011;1916;51.798;12.246;2022-09-24T10:32:57;4.97;;;4.47;;
3801;SDS011;1916;51.798;12.246;2022-09-24T10:35:00;5.10;;;4.70;;
3801;SDS011;1916;51.798;12.246;2022-09-24T10:37:12;6.63;;;5.40;;
3801;SDS011;1916;51.798;12.246;2022-09-24T10:39:16;5.90;;;4.80;;
3801;SDS011;1916;51.798;12.246;2022-09-24T10:41:25;4.90;;;4.40;;
3801;SDS011;1916;51.798;12.246;2022-09-24T10:43:28;6.97;;;4.77;;
3801;SDS011;1916;51.798;12.246;2022-09-24T10:57:27;5.77;;;4.40;;
3801;SDS011;1916;51.798;12.246;2022-09-24T10:59:36;5.13;;;3.73;;
3801;SDS011;1916;51.798;12.246;2022-09-24T11:01:50;7.90;;;5.00;;
3801;SDS011;1916;51.798;12.246;2022-09-24T11:09:52;4.20;;;3.10;;
3801;SDS011;1916;51.798;12.246;2022-09-24T11:12:23;3.50;;;3.20;;
3801;SDS011;1916;51.798;12.246;2022-09-24T11:14:43;3.53;;;2.63;;
3801;SDS011;1916;51.798;12.246;2022-09-24T11:16:59;3.80;;;3.30;;
3801;SDS011;1916;51.798;12.246;2022-09-24T11:26:51;4.63;;;3.00;;
3801;SDS011;1916;51.798;12.246;2022-09-24T11:45:37;4.23;;;2.40;;
3801;SDS011;1916;51.798;12.246;2022-09-24T11:48:11;3.20;;;2.43;;
3801;SDS011;1916;51.798;12.246;2022-09-24T11:50:28;2.37;;;2.17;;
3801;SDS011;1916;51.798;12.246;2022-09-24T11:52:37;4.27;;;2.53;;
3801;SDS011;1916;51.798;12.246;2022-09-24T11:55:03;3.90;;;3.07;;
3801;SDS011;1916;51.798;12.246;2022-09-24T11:57:24;15.80;;;10.60;;
3801;SDS011;1916;51.798;12.246;2022-09-24T12:01:43;3.20;;;2.90;;
3801;SDS011;1916;51.798;12.246;2022-09-24T12:03:59;3.83;;;3.50;;
3801;SDS011;1916;51.798;12.246;2022-09-24T12:06:09;6.57;;;3.10;;
3801;SDS011;1916;51.798;12.246;2022-09-24T12:08:16;4.10;;;2.93;;
3801;SDS011;1916;51.798;12.246;2022-09-24T12:10:41;4.10;;;3.00;;
3801;SDS011;1916;51.798;12.246;2022-09-24T12:12:46;3.33;;;3.00;;
3801;SDS011;1916;51.798;12.246;2022-09-24T12:14:54;4.00;;;3.20;;
3801;SDS011;1916;51.798;12.246;2022-09-24T12:17:00;5.40;;;3.23;;
3801;SDS011;1916;51.798;12.246;2022-09-24T12:19:22;3.60;;;3.30;;
3801;SDS011;1916;51.798;12.246;2022-09-24T12:21:49;3.47;;;3.17;;
3801;SDS011;1916;51.798;12.246;2022-09-24T12:23:53;3.50;;;3.20;;
3801;SDS011;1916;51.798;12.246;2022-09-24T12:26:03;4.87;;;3.23;;
3801;SDS011;1916;51.798;12.246;2022-09-24T12:28:08;4.70;;;3.30;;
3801;SDS011;1916;51.798;12.246;2022-09-24T12:30:33;3.07;;;2.77;;
3801;SDS011;1916;51.798;12.246;2022-09-24T12:33:21;3.17;;;2.90;;
3801;SDS011;1916;51.798;12.246;2022-09-24T12:37:45;6.53;;;3.50;;
3801;SDS011;1916;51.798;12.246;2022-09-24T12:39:58;3.00;;;2.70;;
3801;SDS011;1916;51.798;12.246;2022-09-24T12:42:10;4.53;;;3.03;;
3801;SDS011;1916;51.798;12.246;2022-09-24T12:44:16;3.60;;;3.23;;
3801;SDS011;1916;51.798;12.246;2022-09-24T12:46:24;4.20;;;3.37;;
3801;SDS011;1916;51.798;12.246;2022-09-24T12:50:37;4.17;;;2.83;;
3801;SDS011;1916;51.798;12.246;2022-09-24T12:52:41;4.20;;;3.33;;
3801;SDS011;1916;51.798;12.246;2022-09-24T12:54:43;5.10;;;2.97;;
3801;SDS011;1916;51.798;12.246;2022-09-24T12:56:46;4.23;;;3.03;;
3801;SDS011;1916;51.798;12.246;2022-09-24T12:58:48;4.23;;;2.90;;
3801;SDS011;1916;51.798;12.246;2022-09-24T13:00:50;4.43;;;2.90;;
3801;SDS011;1916;51.798;12.246;2022-09-24T13:02:54;3.40;;;3.10;;
3801;SDS011;1916;51.798;12.246;2022-09-24T13:07:02;5.63;;;2.77;;
3801;SDS011;1916;51.798;12.246;2022-09-24T13:09:21;4.63;;;3.30;;
3801;SDS011;1916;51.798;12.246;2022-09-24T13:11:36;5.37;;;3.13;;
3801;SDS011;1916;51.798;12.246;2022-09-24T13:13:38;3.83;;;3.20;;
3801;SDS011;1916;51.798;12.246;2022-09-24T13:15:44;3.10;;;2.80;;
3801;SDS011;1916;51.798;12.246;2022-09-24T13:17:46;5.00;;;4.47;;
3801;SDS011;1916;51.798;12.246;2022-09-24T13:19:49;4.30;;;3.20;;
3801;SDS011;1916;51.798;12.246;2022-09-24T13:21:58;3.63;;;3.00;;
3801;SDS011;1916;51.798;12.246;2022-09-24T13:24:08;3.20;;;2.90;;
3801;SDS011;1916;51.798;12.246;2022-09-24T13:26:13;4.70;;;2.80;;
3801;SDS011;1916;51.798;12.246;2022-09-24T13:28:27;4.63;;;2.90;;
3801;SDS011;1916;51.798;12.246;2022-09-24T13:30:39;2.83;;;2.63;;
3801;SDS011;1916;51.798;12.246;2022-09-24T13:32:58;5.93;;;3.17;;
3801;SDS011;1916;51.798;12.246;2022-09-24T13:35:05;3.87;;;3.17;;
3801;SDS011;1916;51.798;12.246;2022-09-24T13:37:20;4.77;;;2.30;;
3801;SDS011;1916;51.798;12.246;2022-09-24T13:39:32;3.50;;;3.10;;
3801;SDS011;1916;51.798;12.246;2022-09-24T13:41:59;3.17;;;2.20;;
3801;SDS011;1916;51.798;12.246;2022-09-24T13:44:12;6.60;;;2.50;;
3801;SDS011;1916;51.798;12.246;2022-09-24T13:46:28;3.93;;;2.60;;
3801;SDS011;1916;51.798;12.246;2022-09-24T13:50:43;2.40;;;2.20;;
3801;SDS011;1916;51.798;12.246;2022-09-24T13:52:53;3.57;;;3.27;;
3801;SDS011;1916;51.798;12.246;2022-09-24T13:54:56;2.80;;;2.50;;
3801;SDS011;1916;51.798;12.246;2022-09-24T13:57:18;4.53;;;4.13;;
3801;SDS011;1916;51.798;12.246;2022-09-24T13:59:22;2.70;;;2.50;;
3801;SDS011;1916;51.798;12.246;2022-09-24T14:01:25;2.50;;;2.30;;
3801;SDS011;1916;51.798;12.246;2022-09-24T14:03:31;2.40;;;2.20;;
3801;SDS011;1916;51.798;12.246;2022-09-24T14:05:34;3.83;;;2.97;;
3801;SDS011;1916;51.798;12.246;2022-09-24T14:07:37;5.63;;;2.50;;
3801;SDS011;1916;51.798;12.246;2022-09-24T14:09:41;6.37;;;4.87;;
3801;SDS011;1916;51.798;12.246;2022-09-24T14:11:48;5.87;;;4.20;;